Time;durP1;ratioP1;P1;durP2;ratioP2;P2;SDS_P1;SDS_P2;PMS_P1;PMS_P2;Temp;Humidity;BMP_temperature;BMP_pressure;BME280_temperature;BME280_humidity;BME280_pressure;Samples;Min_cycle;Max_cycle;Signal;HPM_P1;HPM_P2
2022/03/15 00:02:05;;;;;;;;;;;7.70;82.70;;;;;;5087998;28;19918;-69
2022/03/15 00:04:31;;;;;;;;;;;7.60;82.60;;;;;;5072996;28;20010;-70
2022/03/15 00:06:58;;;;;;;;;;;7.60;82.60;;;;;;5070078;28;20222;-69
2022/03/15 00:09:24;;;;;;;;;;;7.60;82.70;;;;;;5086623;28;19919;-70
2022/03/15 00:11:52;;;;;;;;;;;7.60;82.60;;;;;;5086591;28;19912;-69
2022/03/15 00:14:19;;;;;;;;;;;7.60;82.70;;;;;;5084374;28;19988;-70
2022/03/15 00:16:44;;;;;;;;;;;7.60;82.60;;;;;;5084360;28;20365;-70
2022/03/15 00:19:10;;;;;;;;;;;7.60;82.30;;;;;;5086194;28;19946;-69
2022/03/15 00:21:37;;;;;;;;;;;7.60;82.60;;;;;;5087469;28;19916;-69
2022/03/15 00:24:04;;;;;;;;;;;7.60;82.60;;;;;;5084928;28;19999;-70
2022/03/15 00:26:30;;;;;;;;;;;7.50;82.40;;;;;;5074563;28;20348;-69
2022/03/15 00:28:55;;;;;;;;;;;7.50;82.60;;;;;;5087407;28;19912;-69
2022/03/15 00:31:21;;;;;;;;;;;7.50;82.40;;;;;;5087330;28;19919;-70
2022/03/15 00:33:46;;;;;;;;;;;7.50;82.50;;;;;;5085727;28;19995;-69
2022/03/15 00:36:12;;;;;;;;;;;7.50;82.70;;;;;;5086110;28;19916;-70
2022/03/15 00:38:41;;;;;;;;;;;7.50;83.00;;;;;;5086635;28;20357;-69
2022/03/15 00:41:07;;;;;;;;;;;7.50;83.10;;;;;;5080572;28;20266;-70
2022/03/15 00:43:33;;;;;;;;;;;7.50;83.20;;;;;;5086568;28;19918;-70
2022/03/15 00:45:58;;;;;;;;;;;7.50;83.20;;;;;;5084384;28;20011;-70
2022/03/15 00:48:24;;;;;;;;;;;7.50;83.20;;;;;;5077291;28;19909;-69
2022/03/15 00:50:49;;;;;;;;;;;7.40;83.20;;;;;;5070051;28;19912;-70
2022/03/15 00:53:15;;;;;;;;;;;7.40;83.20;;;;;;5085858;28;19955;-69
2022/03/15 00:55:40;;;;;;;;;;;7.40;83.30;;;;;;5086034;28;19944;-70
2022/03/15 00:58:06;;;;;;;;;;;7.40;83.20;;;;;;5086762;28;19966;-70
2022/03/15 01:00:32;;;;;;;;;;;7.40;83.30;;;;;;5085710;28;20006;-70
2022/03/15 01:02:58;;;;;;;;;;;7.40;83.20;;;;;;5084312;28;19974;-70
2022/03/15 01:05:24;;;;;;;;;;;7.40;83.30;;;;;;5084156;28;19991;-70
2022/03/15 01:07:49;;;;;;;;;;;7.40;83.50;;;;;;5066580;28;19912;-70
2022/03/15 01:10:15;;;;;;;;;;;7.40;83.40;;;;;;5086009;28;19915;-69
2022/03/15 01:12:40;;;;;;;;;;;7.30;83.40;;;;;;5085841;28;19995;-70
2022/03/15 01:15:07;;;;;;;;;;;7.30;83.40;;;;;;5080532;28;19912;-70
2022/03/15 01:17:32;;;;;;;;;;;7.30;83.40;;;;;;5087090;28;20417;-70
2022/03/15 01:19:58;;;;;;;;;;;7.30;83.50;;;;;;5085474;28;19912;-70
2022/03/15 01:22:23;;;;;;;;;;;7.30;83.60;;;;;;5085195;28;20357;-70
2022/03/15 01:24:49;;;;;;;;;;;7.30;83.40;;;;;;5086278;28;19912;-70
2022/03/15 01:27:15;;;;;;;;;;;7.30;83.40;;;;;;5080054;28;19912;-70
2022/03/15 01:29:41;;;;;;;;;;;7.30;83.60;;;;;;5082104;28;20303;-70
2022/03/15 01:32:07;;;;;;;;;;;7.20;83.30;;;;;;5080235;28;19920;-70
2022/03/15 01:34:32;;;;;;;;;;;7.20;83.20;;;;;;5082737;28;20363;-70
2022/03/15 01:37:01;;;;;;;;;;;7.20;83.20;;;;;;5074989;28;20280;-70
2022/03/15 01:39:26;;;;;;;;;;;7.20;83.20;;;;;;5084416;28;19939;-70
2022/03/15 01:41:52;;;;;;;;;;;7.20;83.00;;;;;;5079796;28;19915;-70
2022/03/15 01:44:19;;;;;;;;;;;7.20;83.20;;;;;;5085172;28;19935;-70
2022/03/15 01:46:45;;;;;;;;;;;7.20;83.10;;;;;;5083261;28;20034;-70
2022/03/15 01:49:11;;;;;;;;;;;7.20;83.00;;;;;;5075799;28;19912;-69
2022/03/15 01:51:40;;;;;;;;;;;7.20;82.80;;;;;;5084570;28;19915;-69
2022/03/15 01:54:06;;;;;;;;;;;7.20;82.90;;;;;;5076228;28;19946;-70
2022/03/15 01:56:32;;;;;;;;;;;7.20;82.80;;;;;;5075928;28;19920;-69
2022/03/15 01:58:59;;;;;;;;;;;7.20;82.80;;;;;;5084428;28;19918;-70
2022/03/15 02:01:24;;;;;;;;;;;7.10;82.80;;;;;;5082480;28;19912;-70
2022/03/15 02:03:50;;;;;;;;;;;7.20;82.80;;;;;;5082848;28;19949;-70
2022/03/15 02:06:15;;;;;;;;;;;7.10;82.70;;;;;;5084571;28;20268;-70
2022/03/15 02:08:41;;;;;;;;;;;7.10;82.70;;;;;;5085699;28;19916;-69
2022/03/15 02:11:08;;;;;;;;;;;7.10;82.80;;;;;;5084166;28;19919;-69
2022/03/15 02:13:34;;;;;;;;;;;7.20;82.90;;;;;;5082060;28;19924;-70
2022/03/15 02:16:00;;;;;;;;;;;7.10;82.80;;;;;;5081742;28;19912;-70
2022/03/15 02:18:27;;;;;;;;;;;7.10;82.60;;;;;;5082034;28;19933;-70
2022/03/15 02:20:55;;;;;;;;;;;7.10;82.70;;;;;;5083260;28;20675;-69
2022/03/15 02:23:21;;;;;;;;;;;7.10;82.80;;;;;;5079838;28;19989;-69
2022/03/15 02:25:46;;;;;;;;;;;7.10;82.70;;;;;;5081360;28;19916;-70
2022/03/15 02:28:12;;;;;;;;;;;7.10;82.70;;;;;;5084567;28;20368;-70
2022/03/15 02:30:38;;;;;;;;;;;7.10;82.90;;;;;;5084115;28;20605;-70
2022/03/15 02:33:03;;;;;;;;;;;7.10;82.60;;;;;;5084267;28;20011;-69
2022/03/15 02:35:29;;;;;;;;;;;7.10;82.80;;;;;;5065460;28;19916;-69
2022/03/15 02:37:54;;;;;;;;;;;7.10;82.70;;;;;;5068425;28;19912;-69
2022/03/15 02:40:20;;;;;;;;;;;7.10;82.70;;;;;;5081720;28;20067;-69
2022/03/15 02:42:45;;;;;;;;;;;7.10;82.60;;;;;;5081230;28;20003;-70
2022/03/15 02:45:11;;;;;;;;;;;7.00;82.60;;;;;;5068813;28;19919;-69
2022/03/15 02:47:37;;;;;;;;;;;7.10;82.60;;;;;;5084473;28;19919;-70
2022/03/15 02:50:03;;;;;;;;;;;7.00;82.50;;;;;;5084963;28;19912;-70
2022/03/15 02:52:29;;;;;;;;;;;7.10;82.50;;;;;;5066519;28;19912;-69
2022/03/15 02:54:55;;;;;;;;;;;7.00;82.40;;;;;;5082969;28;20539;-69
2022/03/15 02:57:23;;;;;;;;;;;7.00;82.40;;;;;;5082996;28;19920;-70
2022/03/15 02:59:48;;;;;;;;;;;7.00;82.30;;;;;;5067058;28;19912;-70
2022/03/15 03:02:14;;;;;;;;;;;7.00;82.30;;;;;;5082750;28;20504;-69
2022/03/15 03:04:39;;;;;;;;;;;7.00;82.20;;;;;;5068073;28;20321;-70
2022/03/15 03:07:06;;;;;;;;;;;7.00;82.10;;;;;;5081189;28;19962;-69
2022/03/15 03:09:31;;;;;;;;;;;7.00;82.20;;;;;;5082266;28;20409;-69
2022/03/15 03:12:00;;;;;;;;;;;7.00;82.10;;;;;;5078659;28;19916;-69
2022/03/15 03:14:25;;;;;;;;;;;7.00;82.20;;;;;;5079720;28;19999;-69
2022/03/15 03:16:51;;;;;;;;;;;7.00;82.30;;;;;;5072689;28;20396;-69
2022/03/15 03:19:17;;;;;;;;;;;7.00;82.30;;;;;;5088588;28;20222;-70
2022/03/15 03:21:43;;;;;;;;;;;7.00;82.30;;;;;;5091348;28;19912;-70
2022/03/15 03:24:09;;;;;;;;;;;7.00;82.30;;;;;;5080742;28;19912;-69
2022/03/15 03:26:37;;;;;;;;;;;7.00;82.30;;;;;;5091220;28;20252;-69
2022/03/15 03:29:06;;;;;;;;;;;7.00;82.60;;;;;;5073118;28;19916;-70
2022/03/15 03:31:32;;;;;;;;;;;7.00;82.40;;;;;;5088723;28;19916;-69
2022/03/15 03:33:58;;;;;;;;;;;7.00;82.60;;;;;;5090986;28;19938;-70
2022/03/15 03:36:24;;;;;;;;;;;7.00;82.60;;;;;;5091684;28;19912;-69
2022/03/15 03:38:50;;;;;;;;;;;6.90;82.60;;;;;;5089821;28;20359;-70
2022/03/15 03:41:16;;;;;;;;;;;6.90;83.30;;;;;;5089228;28;19948;-69
2022/03/15 03:43:41;;;;;;;;;;;7.00;82.80;;;;;;5072017;28;19911;-69
2022/03/15 03:46:07;;;;;;;;;;;6.90;83.00;;;;;;5088581;28;19950;-69
2022/03/15 03:48:32;;;;;;;;;;;7.00;83.10;;;;;;5090700;28;19923;-69
2022/03/15 03:50:58;;;;;;;;;;;6.90;83.10;;;;;;5087067;28;19987;-69
2022/03/15 03:53:24;;;;;;;;;;;6.90;83.00;;;;;;5074657;28;19916;-70
2022/03/15 03:55:49;;;;;;;;;;;6.90;83.10;;;;;;5078449;28;19912;-70
2022/03/15 03:58:15;;;;;;;;;;;6.90;83.20;;;;;;5075925;28;20482;-69
2022/03/15 04:00:40;;;;;;;;;;;6.90;83.10;;;;;;5090908;28;20431;-69
2022/03/15 04:03:06;;;;;;;;;;;6.90;83.20;;;;;;5090564;28;20446;-70
2022/03/15 04:05:35;;;;;;;;;;;6.90;83.30;;;;;;5090011;28;19916;-70
2022/03/15 04:08:01;;;;;;;;;;;6.90;83.20;;;;;;5073004;28;19908;-69
2022/03/15 04:10:29;;;;;;;;;;;6.90;83.30;;;;;;5088168;28;19942;-69
2022/03/15 04:12:55;;;;;;;;;;;6.90;84.00;;;;;;5087876;28;19923;-69
2022/03/15 04:15:21;;;;;;;;;;;6.90;83.20;;;;;;5091290;28;19908;-69
2022/03/15 04:17:47;;;;;;;;;;;6.90;83.30;;;;;;5091182;28;19912;-70
2022/03/15 04:20:13;;;;;;;;;;;6.90;83.30;;;;;;5089277;28;19922;-70
2022/03/15 04:22:38;;;;;;;;;;;6.90;83.30;;;;;;5085854;28;19912;-70
2022/03/15 04:25:04;;;;;;;;;;;6.90;83.30;;;;;;5067624;28;19916;-69
2022/03/15 04:27:29;;;;;;;;;;;6.80;83.20;;;;;;5086955;28;20542;-69
2022/03/15 04:29:55;;;;;;;;;;;6.90;83.20;;;;;;5070872;28;19915;-69
2022/03/15 04:32:20;;;;;;;;;;;6.90;83.20;;;;;;5084663;28;19958;-69
2022/03/15 04:34:46;;;;;;;;;;;6.80;83.00;;;;;;5085075;28;20594;-69
2022/03/15 04:37:12;;;;;;;;;;;6.80;83.10;;;;;;5085607;28;20277;-70
2022/03/15 04:39:37;;;;;;;;;;;6.80;83.00;;;;;;5086442;28;19918;-69
2022/03/15 04:42:04;;;;;;;;;;;6.80;83.00;;;;;;5084696;28;19919;-69
2022/03/15 04:44:30;;;;;;;;;;;6.80;82.80;;;;;;5087407;28;19908;-70
2022/03/15 04:46:56;;;;;;;;;;;6.80;82.90;;;;;;5084519;28;19939;-69
2022/03/15 04:49:21;;;;;;;;;;;6.80;82.80;;;;;;5076948;28;19919;-69
2022/03/15 04:51:48;;;;;;;;;;;6.80;82.60;;;;;;5070005;28;19919;-69
2022/03/15 04:54:13;;;;;;;;;;;6.80;82.60;;;;;;5070216;28;19912;-69
2022/03/15 04:56:39;;;;;;;;;;;6.80;82.60;;;;;;5084575;28;19931;-70
2022/03/15 04:59:05;;;;;;;;;;;6.80;82.60;;;;;;5086102;28;19912;-69
2022/03/15 05:01:31;;;;;;;;;;;6.80;82.50;;;;;;5083925;28;20592;-69
2022/03/15 05:03:56;;;;;;;;;;;6.80;82.40;;;;;;5081504;28;19912;-69
2022/03/15 05:06:21;;;;;;;;;;;6.80;82.50;;;;;;5085685;28;19927;-70
2022/03/15 05:08:48;;;;;;;;;;;6.80;82.60;;;;;;5085976;28;19912;-70
2022/03/15 05:11:14;;;;;;;;;;;6.80;82.80;;;;;;5085101;28;19921;-70
2022/03/15 05:13:42;;;;;;;;;;;6.80;83.00;;;;;;5086246;28;19981;-70
2022/03/15 05:16:15;;;;;;;;;;;6.80;83.10;;;;;;5068185;28;19986;-69
2022/03/15 05:18:41;;;;;;;;;;;6.80;83.10;;;;;;5084816;28;19916;-69
2022/03/15 05:21:07;;;;;;;;;;;6.80;83.30;;;;;;5085447;28;19969;-69
2022/03/15 05:23:32;;;;;;;;;;;6.80;83.20;;;;;;5083376;28;19950;-69
2022/03/15 05:25:58;;;;;;;;;;;6.80;83.10;;;;;;5068801;28;19943;-70
2022/03/15 05:28:24;;;;;;;;;;;6.80;83.20;;;;;;5083082;28;20630;-70
2022/03/15 05:30:50;;;;;;;;;;;6.70;83.30;;;;;;5066288;28;19920;-70
2022/03/15 05:33:16;;;;;;;;;;;6.80;83.20;;;;;;5069344;28;20682;-70
2022/03/15 05:35:41;;;;;;;;;;;6.80;83.40;;;;;;5086878;28;20022;-69
2022/03/15 05:38:07;;;;;;;;;;;6.80;83.50;;;;;;5085852;28;19916;-69
2022/03/15 05:40:34;;;;;;;;;;;6.70;83.40;;;;;;5085305;28;19922;-70
2022/03/15 05:42:59;;;;;;;;;;;6.70;84.10;;;;;;5084138;28;19947;-70
2022/03/15 05:45:25;;;;;;;;;;;6.70;83.50;;;;;;5071230;28;19916;-69
2022/03/15 05:47:53;;;;;;;;;;;6.70;83.40;;;;;;5084134;28;20480;-70
2022/03/15 05:50:19;;;;;;;;;;;6.70;83.40;;;;;;5070465;28;19985;-70
2022/03/15 05:52:44;;;;;;;;;;;6.70;83.50;;;;;;5083960;28;19954;-70
2022/03/15 05:55:10;;;;;;;;;;;6.70;83.50;;;;;;5083591;28;19949;-69
2022/03/15 05:57:36;;;;;;;;;;;6.70;83.40;;;;;;5070502;28;19916;-70
2022/03/15 06:00:02;;;;;;;;;;;6.70;83.40;;;;;;5083163;28;19916;-70
2022/03/15 06:02:27;;;;;;;;;;;6.70;83.60;;;;;;5084656;28;19912;-70
2022/03/15 06:04:53;;;;;;;;;;;6.70;83.50;;;;;;5081505;28;19916;-70
2022/03/15 06:07:18;;;;;;;;;;;6.70;83.60;;;;;;5064647;28;20550;-70
2022/03/15 06:09:44;;;;;;;;;;;6.70;83.50;;;;;;5082735;28;19957;-70
2022/03/15 06:12:10;;;;;;;;;;;6.70;83.60;;;;;;5084593;28;19987;-69
2022/03/15 06:14:35;;;;;;;;;;;6.70;83.60;;;;;;5066881;28;20525;-69
2022/03/15 06:17:01;;;;;;;;;;;6.70;83.70;;;;;;5083506;28;19943;-69
2022/03/15 06:19:26;;;;;;;;;;;6.70;83.60;;;;;;5082339;28;19947;-69
2022/03/15 06:21:52;;;;;;;;;;;6.70;83.60;;;;;;5082063;28;20380;-69
2022/03/15 06:24:18;;;;;;;;;;;6.70;83.60;;;;;;5084448;28;19941;-70
2022/03/15 06:26:43;;;;;;;;;;;6.70;83.60;;;;;;5065743;28;20238;-69
2022/03/15 06:29:09;;;;;;;;;;;6.70;83.50;;;;;;5082542;28;19998;-69
2022/03/15 06:31:35;;;;;;;;;;;6.70;83.70;;;;;;5064088;28;19927;-70
2022/03/15 06:34:01;;;;;;;;;;;6.70;83.50;;;;;;5065865;28;19908;-69
2022/03/15 06:36:26;;;;;;;;;;;6.70;83.80;;;;;;5083446;28;20325;-69
2022/03/15 06:38:53;;;;;;;;;;;6.70;83.50;;;;;;5080727;28;19912;-69
2022/03/15 06:41:19;;;;;;;;;;;6.70;83.40;;;;;;5077868;28;19912;-69
2022/03/15 06:43:44;;;;;;;;;;;6.70;83.50;;;;;;5081996;28;20583;-70
2022/03/15 06:46:10;;;;;;;;;;;6.70;83.40;;;;;;5080572;28;19920;-69
2022/03/15 06:48:36;;;;;;;;;;;6.70;83.40;;;;;;5083490;28;19912;-69
2022/03/15 06:51:02;;;;;;;;;;;6.70;83.40;;;;;;5082225;28;19919;-69
2022/03/15 06:53:28;;;;;;;;;;;6.70;83.40;;;;;;5081756;28;19912;-69
2022/03/15 06:55:54;;;;;;;;;;;6.70;83.50;;;;;;5083986;28;20371;-69
2022/03/15 06:58:19;;;;;;;;;;;6.70;83.40;;;;;;5079535;28;20019;-69
2022/03/15 07:00:45;;;;;;;;;;;6.80;83.30;;;;;;5080272;28;19919;-70
2022/03/15 07:03:10;;;;;;;;;;;6.80;83.30;;;;;;5081898;28;20771;-70
2022/03/15 07:05:36;;;;;;;;;;;6.80;83.30;;;;;;5074886;28;19951;-69
2022/03/15 07:08:02;;;;;;;;;;;6.80;83.20;;;;;;5084494;28;19916;-69
2022/03/15 07:10:27;;;;;;;;;;;6.80;83.20;;;;;;5083877;28;19912;-69
2022/03/15 07:12:53;;;;;;;;;;;6.80;83.00;;;;;;5068361;28;19962;-70
2022/03/15 07:15:20;;;;;;;;;;;6.80;83.20;;;;;;5071853;28;19912;-69
2022/03/15 07:17:52;;;;;;;;;;;6.80;83.00;;;;;;5084296;28;19916;-69
2022/03/15 07:20:18;;;;;;;;;;;6.80;82.70;;;;;;5083577;28;19995;-69
2022/03/15 07:22:44;;;;;;;;;;;6.80;82.80;;;;;;5079837;28;20390;-69
2022/03/15 07:25:09;;;;;;;;;;;6.80;82.70;;;;;;5080179;28;20415;-69
2022/03/15 07:27:35;;;;;;;;;;;6.80;82.60;;;;;;5081279;28;19916;-69
2022/03/15 07:30:01;;;;;;;;;;;6.90;82.50;;;;;;5075136;28;19973;-70
2022/03/15 07:32:26;;;;;;;;;;;6.90;82.50;;;;;;5081469;28;19940;-70
2022/03/15 07:34:51;;;;;;;;;;;6.90;82.40;;;;;;5079297;28;20011;-69
2022/03/15 07:37:17;;;;;;;;;;;6.90;82.20;;;;;;5070173;28;19950;-69
2022/03/15 07:39:43;;;;;;;;;;;6.90;82.40;;;;;;5083060;28;20092;-69
2022/03/15 07:42:10;;;;;;;;;;;6.90;82.30;;;;;;5083809;28;19912;-69
2022/03/15 07:44:35;;;;;;;;;;;6.90;82.40;;;;;;5082716;28;19916;-69
2022/03/15 07:47:01;;;;;;;;;;;6.90;82.30;;;;;;5082081;28;19916;-69
2022/03/15 07:49:27;;;;;;;;;;;7.00;82.40;;;;;;5082825;28;20535;-69
2022/03/15 07:51:53;;;;;;;;;;;7.00;82.40;;;;;;5084488;28;19908;-69
2022/03/15 07:54:18;;;;;;;;;;;7.00;82.30;;;;;;5080851;28;19917;-69
2022/03/15 07:56:44;;;;;;;;;;;7.00;82.30;;;;;;5080999;28;19920;-69
2022/03/15 07:59:09;;;;;;;;;;;7.00;82.20;;;;;;5066251;28;19912;-69
2022/03/15 08:01:35;;;;;;;;;;;7.10;82.20;;;;;;5084287;28;19923;-69
2022/03/15 08:04:01;;;;;;;;;;;7.10;82.20;;;;;;5084556;28;19908;-70
2022/03/15 08:06:26;;;;;;;;;;;7.10;82.10;;;;;;5077318;28;19916;-69
2022/03/15 08:08:58;;;;;;;;;;;7.10;82.10;;;;;;5067956;28;19956;-69
2022/03/15 08:11:24;;;;;;;;;;;7.10;82.20;;;;;;5085312;28;19916;-69
2022/03/15 08:13:51;;;;;;;;;;;7.10;82.20;;;;;;5084295;28;19916;-69
2022/03/15 08:16:17;;;;;;;;;;;7.20;82.10;;;;;;5083646;28;20213;-69
2022/03/15 08:18:42;;;;;;;;;;;7.20;82.20;;;;;;5068522;28;19926;-69
2022/03/15 08:21:09;;;;;;;;;;;7.20;82.10;;;;;;5085058;28;19908;-69
2022/03/15 08:23:34;;;;;;;;;;;7.20;82.00;;;;;;5086200;28;19919;-70
2022/03/15 08:26:00;;;;;;;;;;;7.30;81.90;;;;;;5082218;28;19912;-69
2022/03/15 08:28:26;;;;;;;;;;;7.30;81.80;;;;;;5084661;28;20394;-69
2022/03/15 08:30:54;;;;;;;;;;;7.30;81.80;;;;;;5084926;28;19912;-69
2022/03/15 08:33:20;;;;;;;;;;;7.40;81.60;;;;;;5086254;28;20244;-69
2022/03/15 08:35:46;;;;;;;;;;;7.40;81.50;;;;;;5069254;28;19919;-69
2022/03/15 08:38:12;;;;;;;;;;;7.40;81.50;;;;;;5086638;28;19912;-69
2022/03/15 08:40:37;;;;;;;;;;;7.50;81.30;;;;;;5082780;28;19912;-69
2022/03/15 08:43:04;;;;;;;;;;;7.50;81.30;;;;;;5083749;28;19935;-69
2022/03/15 08:45:29;;;;;;;;;;;7.50;81.20;;;;;;5071816;28;19916;-69
2022/03/15 08:47:55;;;;;;;;;;;7.50;81.10;;;;;;5085106;28;19919;-69
2022/03/15 08:50:21;;;;;;;;;;;7.60;81.00;;;;;;5086605;28;20650;-69
2022/03/15 08:52:48;;;;;;;;;;;7.60;81.00;;;;;;5082230;28;19912;-69
2022/03/15 08:55:14;;;;;;;;;;;7.60;80.90;;;;;;5086461;28;19920;-69
2022/03/15 08:57:39;;;;;;;;;;;7.60;80.90;;;;;;5084863;28;20307;-70
2022/03/15 09:00:06;;;;;;;;;;;7.70;81.10;;;;;;5085167;28;19912;-69
2022/03/15 09:02:31;;;;;;;;;;;7.70;81.20;;;;;;5086277;28;19934;-69
2022/03/15 09:04:57;;;;;;;;;;;7.70;80.90;;;;;;5083605;28;20552;-69
2022/03/15 09:07:22;;;;;;;;;;;7.70;81.00;;;;;;5083083;28;19920;-69
2022/03/15 09:09:48;;;;;;;;;;;7.70;80.90;;;;;;5081447;28;20021;-69
2022/03/15 09:12:13;;;;;;;;;;;7.70;81.20;;;;;;5082266;28;19916;-69
2022/03/15 09:14:39;;;;;;;;;;;7.70;81.00;;;;;;5084107;28;19916;-69
2022/03/15 09:17:05;;;;;;;;;;;7.70;80.90;;;;;;5068748;28;20519;-69
2022/03/15 09:19:31;;;;;;;;;;;7.80;81.00;;;;;;5086107;28;20015;-69
2022/03/15 09:21:57;;;;;;;;;;;7.80;80.70;;;;;;5085256;28;19991;-69
2022/03/15 09:24:22;;;;;;;;;;;7.80;80.70;;;;;;5084766;28;19935;-69
2022/03/15 09:26:48;;;;;;;;;;;7.80;80.70;;;;;;5085416;28;19920;-69
2022/03/15 09:29:13;;;;;;;;;;;7.80;80.50;;;;;;5086800;28;19912;-69
2022/03/15 09:31:39;;;;;;;;;;;7.90;80.60;;;;;;5083292;28;20328;-69
2022/03/15 09:34:05;;;;;;;;;;;7.90;80.70;;;;;;5081578;28;19927;-69
2022/03/15 09:36:31;;;;;;;;;;;7.90;80.60;;;;;;5084339;28;19957;-69
2022/03/15 09:38:56;;;;;;;;;;;7.90;80.70;;;;;;5086111;28;19916;-69
2022/03/15 09:41:24;;;;;;;;;;;8.00;80.40;;;;;;5084651;28;20513;-69
2022/03/15 09:43:50;;;;;;;;;;;8.00;80.40;;;;;;5086127;28;19919;-69
2022/03/15 09:46:18;;;;;;;;;;;8.00;80.30;;;;;;5084542;28;19919;-69
2022/03/15 09:48:45;;;;;;;;;;;8.00;80.60;;;;;;5072984;28;19912;-69
2022/03/15 09:51:14;;;;;;;;;;;8.10;80.30;;;;;;5071291;28;19912;-69
2022/03/15 09:53:41;;;;;;;;;;;8.10;80.10;;;;;;5085599;28;20276;-69
2022/03/15 09:56:06;;;;;;;;;;;8.20;80.20;;;;;;5086232;28;19921;-69
2022/03/15 09:58:32;;;;;;;;;;;8.20;80.00;;;;;;5069394;28;19912;-69
2022/03/15 10:00:57;;;;;;;;;;;8.20;79.90;;;;;;5070878;28;19943;-69
2022/03/15 10:03:23;;;;;;;;;;;8.20;80.00;;;;;;5083007;28;19916;-69
2022/03/15 10:05:49;;;;;;;;;;;8.30;80.00;;;;;;5084248;28;19965;-69
2022/03/15 10:08:15;;;;;;;;;;;8.30;79.70;;;;;;5086211;28;19954;-70
2022/03/15 10:10:41;;;;;;;;;;;8.30;79.70;;;;;;5086329;28;20068;-70
2022/03/15 10:13:08;;;;;;;;;;;8.30;79.80;;;;;;5084455;28;20328;-69
2022/03/15 10:15:33;;;;;;;;;;;8.40;79.70;;;;;;5083355;28;20422;-69
2022/03/15 10:18:05;;;;;;;;;;;8.40;79.60;;;;;;5084888;28;19920;-69
2022/03/15 10:20:41;;;;;;;;;;;8.40;79.50;;;;;;5079201;28;19914;-69
2022/03/15 10:23:09;;;;;;;;;;;8.50;79.40;;;;;;5083864;28;19946;-69
2022/03/15 10:25:36;;;;;;;;;;;8.50;79.50;;;;;;5085349;28;19912;-69
2022/03/15 10:28:06;;;;;;;;;;;8.50;79.50;;;;;;5064124;28;19912;-69
2022/03/15 10:30:32;;;;;;;;;;;8.60;79.40;;;;;;5085265;28;19923;-69
2022/03/15 10:32:57;;;;;;;;;;;8.60;79.40;;;;;;5084111;28;19912;-69
2022/03/15 10:35:24;;;;;;;;;;;8.70;79.20;;;;;;5069425;28;19912;-69
2022/03/15 10:37:50;;;;;;;;;;;8.70;79.10;;;;;;5066622;28;19924;-69
2022/03/15 10:40:16;;;;;;;;;;;8.70;79.20;;;;;;5084352;28;19919;-69
2022/03/15 10:42:43;;;;;;;;;;;8.70;79.10;;;;;;5067775;28;19912;-69
2022/03/15 10:45:22;;;;;;;;;;;8.80;79.10;;;;;;5084415;28;19918;-69
2022/03/15 10:47:48;;;;;;;;;;;8.80;79.40;;;;;;5082362;28;19945;-69
2022/03/15 10:50:14;;;;;;;;;;;8.90;79.10;;;;;;5076040;28;19938;-69
2022/03/15 10:52:41;;;;;;;;;;;8.90;78.90;;;;;;5085020;28;19920;-69
2022/03/15 10:55:12;;;;;;;;;;;8.90;78.90;;;;;;5068284;28;19912;-69
2022/03/15 10:57:44;;;;;;;;;;;8.90;78.80;;;;;;5083371;28;19920;-69
2022/03/15 11:00:10;;;;;;;;;;;8.90;79.20;;;;;;5083762;28;20000;-69
2022/03/15 11:02:35;;;;;;;;;;;9.00;78.80;;;;;;5082763;28;19970;-69
2022/03/15 11:05:01;;;;;;;;;;;9.00;78.70;;;;;;5067481;28;19919;-69
2022/03/15 11:07:37;;;;;;;;;;;9.00;78.90;;;;;;5083170;28;19920;-69
2022/03/15 11:10:13;;;;;;;;;;;9.00;78.60;;;;;;5083807;28;20013;-70
2022/03/15 11:12:53;;;;;;;;;;;9.10;78.90;;;;;;5066994;28;19908;-69
2022/03/15 11:15:19;;;;;;;;;;;9.10;78.60;;;;;;5083273;28;19963;-69
2022/03/15 11:17:46;;;;;;;;;;;9.20;78.50;;;;;;5081745;28;19912;-70
2022/03/15 11:20:12;;;;;;;;;;;9.20;78.30;;;;;;5081123;28;20674;-69
2022/03/15 11:22:37;;;;;;;;;;;9.20;78.40;;;;;;5083254;28;19923;-70
2022/03/15 11:25:03;;;;;;;;;;;9.30;78.30;;;;;;5084269;28;19942;-69
2022/03/15 11:27:33;;;;;;;;;;;9.30;78.20;;;;;;5083885;28;20007;-69
2022/03/15 11:30:02;;;;;;;;;;;9.40;78.40;;;;;;5084304;28;19919;-69
2022/03/15 11:32:35;;;;;;;;;;;9.30;78.10;;;;;;5082911;28;20000;-70
2022/03/15 11:35:01;;;;;;;;;;;9.40;78.30;;;;;;5085729;28;19914;-69
2022/03/15 11:37:26;;;;;;;;;;;9.40;78.20;;;;;;5072203;28;19914;-70
2022/03/15 11:39:53;;;;;;;;;;;9.50;78.20;;;;;;5085817;28;19916;-69
2022/03/15 11:42:18;;;;;;;;;;;9.50;78.00;;;;;;5087019;28;19927;-70
2022/03/15 11:44:50;;;;;;;;;;;9.60;78.00;;;;;;5072243;28;19912;-69
2022/03/15 11:47:22;;;;;;;;;;;9.60;78.00;;;;;;5087033;28;19947;-69
2022/03/15 11:49:52;;;;;;;;;;;9.60;77.80;;;;;;5088112;28;19919;-69
2022/03/15 11:52:37;;;;;;;;;;;9.70;78.40;;;;;;5086210;28;19923;-69
2022/03/15 11:55:06;;;;;;;;;;;9.70;78.20;;;;;;5086894;28;19916;-69
2022/03/15 11:57:38;;;;;;;;;;;9.80;77.50;;;;;;5088217;28;19924;-69
2022/03/15 12:00:04;;;;;;;;;;;9.80;77.30;;;;;;5085520;28;20014;-69
2022/03/15 12:02:38;;;;;;;;;;;9.90;77.40;;;;;;5070785;28;19998;-69
2022/03/15 12:05:17;;;;;;;;;;;9.90;77.50;;;;;;5085933;28;19966;-69
2022/03/15 12:07:47;;;;;;;;;;;9.90;77.20;;;;;;5073261;28;20031;-69
2022/03/15 12:10:23;;;;;;;;;;;9.90;77.40;;;;;;5088086;28;19916;-70
2022/03/15 12:12:58;;;;;;;;;;;10.00;77.40;;;;;;5086223;28;20431;-69
2022/03/15 12:15:31;;;;;;;;;;;10.00;77.40;;;;;;5085666;28;19911;-69
2022/03/15 12:18:04;;;;;;;;;;;10.00;77.30;;;;;;5068023;28;19985;-69
2022/03/15 12:20:39;;;;;;;;;;;10.00;77.40;;;;;;5085217;28;19927;-69
2022/03/15 12:23:15;;;;;;;;;;;10.00;77.30;;;;;;5084564;28;20065;-69
2022/03/15 12:25:43;;;;;;;;;;;10.10;77.60;;;;;;5087070;28;19972;-69
2022/03/15 12:28:09;;;;;;;;;;;10.00;77.30;;;;;;5084747;28;20018;-69
2022/03/15 12:30:34;;;;;;;;;;;10.10;77.50;;;;;;5086431;28;20026;-69
2022/03/15 12:33:00;;;;;;;;;;;10.10;77.70;;;;;;5085913;28;20429;-69
2022/03/15 12:35:27;;;;;;;;;;;10.10;77.50;;;;;;5068532;28;19916;-69
2022/03/15 12:38:05;;;;;;;;;;;10.10;77.60;;;;;;5070246;28;20553;-69
2022/03/15 12:40:31;;;;;;;;;;;10.20;77.80;;;;;;5076314;28;19912;-69
2022/03/15 12:42:58;;;;;;;;;;;10.20;77.50;;;;;;5085201;28;19927;-69
2022/03/15 12:45:23;;;;;;;;;;;10.30;78.00;;;;;;5083512;28;19919;-69
2022/03/15 12:47:51;;;;;;;;;;;10.30;77.50;;;;;;5087257;28;19920;-69
2022/03/15 12:50:21;;;;;;;;;;;10.30;77.30;;;;;;5073936;28;20415;-69
2022/03/15 12:52:54;;;;;;;;;;;10.40;77.20;;;;;;5082892;28;19924;-69
2022/03/15 12:55:24;;;;;;;;;;;10.40;77.10;;;;;;5082969;28;19920;-69
2022/03/15 12:57:57;;;;;;;;;;;10.50;77.10;;;;;;5083987;28;20015;-69
2022/03/15 13:00:25;;;;;;;;;;;10.50;77.00;;;;;;5072290;28;19916;-69
2022/03/15 13:02:51;;;;;;;;;;;10.50;77.00;;;;;;5070388;28;19919;-69
2022/03/15 13:05:17;;;;;;;;;;;10.50;76.90;;;;;;5073148;28;19912;-69
2022/03/15 13:07:46;;;;;;;;;;;10.50;77.00;;;;;;5084551;28;19928;-69
2022/03/15 13:10:13;;;;;;;;;;;10.60;76.90;;;;;;5083256;28;19923;-69
2022/03/15 13:12:43;;;;;;;;;;;10.60;76.90;;;;;;5085157;28;19912;-69
2022/03/15 13:15:11;;;;;;;;;;;10.60;76.80;;;;;;5086478;28;19912;-69
2022/03/15 13:17:46;;;;;;;;;;;10.60;76.90;;;;;;5087208;28;20391;-69
2022/03/15 13:20:21;;;;;;;;;;;10.60;77.00;;;;;;5085597;28;19919;-69
2022/03/15 13:22:55;;;;;;;;;;;10.70;76.90;;;;;;5085862;28;19912;-69
2022/03/15 13:25:21;;;;;;;;;;;10.70;77.00;;;;;;5083987;28;20006;-69
2022/03/15 13:27:47;;;;;;;;;;;10.80;77.70;;;;;;5085476;28;20531;-69
2022/03/15 13:30:14;;;;;;;;;;;10.80;76.60;;;;;;5086272;28;20506;-69
2022/03/15 13:32:40;;;;;;;;;;;10.80;76.60;;;;;;5068662;28;20403;-69
2022/03/15 13:35:06;;;;;;;;;;;10.90;76.60;;;;;;5081827;28;19955;-69
2022/03/15 13:37:32;;;;;;;;;;;10.90;76.50;;;;;;5083982;28;19909;-69
2022/03/15 13:39:57;;;;;;;;;;;10.90;76.40;;;;;;5085862;28;19930;-69
2022/03/15 13:42:23;;;;;;;;;;;10.90;76.40;;;;;;5073650;28;19916;-69
2022/03/15 13:44:49;;;;;;;;;;;11.00;76.20;;;;;;5085908;28;19912;-69
2022/03/15 13:47:17;;;;;;;;;;;11.00;76.30;;;;;;5073493;28;19916;-69
2022/03/15 13:49:47;;;;;;;;;;;11.10;76.30;;;;;;5072495;28;19923;-69
2022/03/15 13:52:17;;;;;;;;;;;11.10;76.30;;;;;;5071050;28;19912;-69
2022/03/15 13:54:50;;;;;;;;;;;11.10;76.20;;;;;;5084483;28;19918;-69
2022/03/15 13:57:26;;;;;;;;;;;11.10;76.30;;;;;;5082913;28;20399;-69
2022/03/15 13:59:56;;;;;;;;;;;11.10;76.40;;;;;;5083781;28;19978;-69
2022/03/15 14:02:22;;;;;;;;;;;11.10;76.30;;;;;;5082702;28;19908;-69
2022/03/15 14:04:57;;;;;;;;;;;11.10;76.40;;;;;;5082943;28;19938;-69
2022/03/15 14:07:23;;;;;;;;;;;11.10;76.40;;;;;;5077450;28;19941;-69
2022/03/15 14:09:56;;;;;;;;;;;11.10;76.50;;;;;;5067689;28;19922;-69
2022/03/15 14:12:23;;;;;;;;;;;11.10;76.50;;;;;;5070667;28;20322;-69
2022/03/15 14:14:55;;;;;;;;;;;11.20;76.50;;;;;;5084355;28;19953;-69
2022/03/15 14:17:26;;;;;;;;;;;11.10;76.40;;;;;;5083031;28;19990;-69
2022/03/15 14:19:55;;;;;;;;;;;11.20;76.50;;;;;;5084755;28;20026;-69
2022/03/15 14:22:23;;;;;;;;;;;11.20;76.50;;;;;;5084200;28;19915;-69
2022/03/15 14:24:56;;;;;;;;;;;11.30;76.40;;;;;;5080880;28;19912;-69
2022/03/15 14:27:22;;;;;;;;;;;11.30;76.40;;;;;;5080739;28;20045;-69